Time;durP1;ratioP1;P1;durP2;ratioP2;P2;SDS_P1;SDS_P2;PMS_P1;PMS_P2;Temp;Humidity;BMP_temperature;BMP_pressure;BME280_temperature;BME280_humidity;BME280_pressure;Samples;Min_cycle;Max_cycle;Signal;HPM_P1;HPM_P2
2023/01/10 00:01:46;;;;;;;13.80;7.20;;;;;;;6.24;96.17;100104.02;107567;1255;70777;-76
2023/01/10 00:04:13;;;;;;;12.60;6.70;;;;;;;6.23;95.96;100110.64;107475;1255;72728;-76
2023/01/10 00:06:40;;;;;;;11.20;6.10;;;;;;;6.22;95.62;100105.80;107227;1260;61050;-77
2023/01/10 00:09:09;;;;;;;12.40;6.60;;;;;;;6.22;95.66;100113.70;107047;1256;60478;-76
2023/01/10 00:14:22;;;;;;;13.90;6.90;;;;;;;6.21;95.76;100125.36;106886;1255;70900;-76
2023/01/10 00:16:49;;;;;;;13.20;6.60;;;;;;;6.22;95.63;100124.41;106979;1256;71939;-76
2023/01/10 00:19:17;;;;;;;12.40;6.60;;;;;;;6.20;95.50;100133.05;107358;1255;62113;-75
2023/01/10 00:21:43;;;;;;;12.80;6.70;;;;;;;6.20;95.45;100130.77;107609;1257;59615;-76
2023/01/10 00:24:21;;;;;;;12.70;6.80;;;;;;;6.19;95.61;100137.04;107702;1254;73291;-75
2023/01/10 00:26:52;;;;;;;14.00;7.30;;;;;;;6.15;95.50;100139.02;107129;1254;70056;-77
2023/01/10 00:29:26;;;;;;;14.20;7.00;;;;;;;6.09;95.53;100143.77;107247;1257;71729;-76
2023/01/10 00:31:54;;;;;;;16.40;7.00;;;;;;;6.07;95.51;100150.13;107399;1256;60384;-76
2023/01/10 00:34:24;;;;;;;13.20;6.90;;;;;;;6.06;95.47;100156.90;106968;1257;59207;-76
2023/01/10 00:36:51;;;;;;;14.20;8.00;;;;;;;6.03;95.63;100156.33;107074;1259;73925;-75
2023/01/10 00:39:19;;;;;;;12.90;7.00;;;;;;;6.03;95.57;100158.11;107126;1256;69714;-76
2023/01/10 00:44:32;;;;;;;12.90;6.50;;;;;;;6.04;96.12;100169.41;107221;1257;61189;-77
2023/01/10 00:47:02;;;;;;;14.10;7.40;;;;;;;6.06;95.97;100170.33;107220;1255;59277;-77
2023/01/10 00:49:34;;;;;;;14.50;7.50;;;;;;;6.08;95.85;100173.44;107239;1255;71513;-77
2023/01/10 00:52:01;;;;;;;14.40;7.60;;;;;;;6.09;95.90;100185.98;107200;1256;71202;-77
2023/01/10 00:54:29;;;;;;;14.00;7.20;;;;;;;6.10;95.91;100188.13;107108;1255;71395;-76
2023/01/10 00:56:56;;;;;;;13.60;7.80;;;;;;;6.10;95.83;100192.50;106758;1255;60346;-76
2023/01/10 00:59:23;;;;;;;10.80;7.10;;;;;;;6.10;96.04;100201.80;107762;1256;60535;-76
2023/01/10 01:01:51;;;;;;;12.30;7.40;;;;;;;6.11;95.76;100209.63;107501;1255;73902;-76
2023/01/10 01:04:22;;;;;;;12.80;7.30;;;;;;;6.10;96.12;100219.50;107060;1256;71170;-77
2023/01/10 01:06:57;;;;;;;12.10;7.80;;;;;;;6.13;96.05;100220.86;107108;1256;72356;-77
2023/01/10 01:09:29;;;;;;;14.40;8.20;;;;;;;6.11;95.89;100226.28;106741;1256;61200;-78
2023/01/10 01:11:56;;;;;;;13.60;7.30;;;;;;;6.10;95.88;100230.56;107149;1255;60472;-77
2023/01/10 01:14:24;;;;;;;13.50;7.70;;;;;;;6.09;95.90;100235.09;107202;1255;73241;-76
2023/01/10 01:16:58;;;;;;;13.10;7.60;;;;;;;6.08;95.90;100242.59;107189;1255;71498;-77
2023/01/10 01:19:27;;;;;;;13.00;8.00;;;;;;;6.08;95.85;100243.98;108107;1257;72556;-76
2023/01/10 01:21:54;;;;;;;13.40;7.70;;;;;;;6.07;95.98;100252.66;107047;1256;60422;-76
2023/01/10 01:24:23;;;;;;;10.90;7.70;;;;;;;6.05;95.85;100259.89;107155;1255;59350;-76
2023/01/10 01:26:50;;;;;;;12.20;7.10;;;;;;;6.06;95.75;100264.75;106907;1258;73919;-79
2023/01/10 01:29:17;;;;;;;14.60;7.10;;;;;;;6.05;95.83;100273.95;107384;1255;71177;-76
2023/01/10 01:31:53;;;;;;;13.30;7.10;;;;;;;6.05;95.74;100278.49;106856;1255;71124;-78
2023/01/10 01:34:20;;;;;;;13.20;7.10;;;;;;;6.04;95.99;100284.38;106995;1256;60837;-76
2023/01/10 01:36:47;;;;;;;13.40;7.00;;;;;;;6.04;95.71;100291.27;107600;1255;60320;-76
2023/01/10 01:39:14;;;;;;;11.70;6.90;;;;;;;6.05;95.84;100297.66;107621;1256;73893;-76
2023/01/10 01:41:57;;;;;;;11.40;6.40;;;;;;;6.03;95.64;100299.77;107158;1256;70056;-76
2023/01/10 01:44:30;;;;;;;10.70;6.60;;;;;;;6.05;95.73;100307.11;107194;1255;70264;-77
2023/01/10 01:47:04;;;;;;;11.80;7.20;;;;;;;6.06;95.59;100316.48;107195;1255;60842;-77
2023/01/10 01:49:36;;;;;;;11.70;7.40;;;;;;;6.07;95.77;100323.98;107058;1256;60449;-75
2023/01/10 01:52:10;;;;;;;12.00;6.90;;;;;;;6.08;95.88;100327.00;107172;1255;72440;-76
2023/01/10 01:54:38;;;;;;;9.80;6.60;;;;;;;6.09;95.74;100330.03;107908;1257;69980;-78
2023/01/10 01:57:13;;;;;;;12.00;7.00;;;;;;;6.10;95.74;100339.42;107353;1255;72048;-76
2023/01/10 01:59:46;;;;;;;14.30;6.70;;;;;;;6.11;95.65;100338.97;106973;1255;60941;-76
2023/01/10 02:02:28;;;;;;;11.60;6.60;;;;;;;6.12;95.47;100337.69;107026;1260;61213;-76
2023/01/10 02:05:09;;;;;;;11.90;7.10;;;;;;;6.13;95.63;100343.71;106968;1255;72907;-77
2023/01/10 02:07:39;;;;;;;13.50;6.90;;;;;;;6.13;95.41;100341.43;107209;1255;69441;-76
2023/01/10 02:10:24;;;;;;;11.60;6.50;;;;;;;6.13;95.49;100350.52;107263;1257;71545;-77
2023/01/10 02:12:53;;;;;;;12.30;7.30;;;;;;;6.12;95.42;100357.50;108043;1255;60126;-76
2023/01/10 02:15:21;;;;;;;12.00;7.20;;;;;;;6.12;95.39;100361.33;107151;1255;61664;-76
2023/01/10 02:17:51;;;;;;;13.00;7.00;;;;;;;6.11;95.53;100363.75;107077;1255;74363;-76
2023/01/10 02:20:20;;;;;;;11.70;6.90;;;;;;;6.10;95.59;100372.30;107106;1255;69837;-76
2023/01/10 02:22:50;;;;;;;10.70;6.80;;;;;;;6.06;95.46;100380.37;108072;1255;71275;-77
2023/01/10 02:25:59;;;;;;;12.40;7.20;;;;;;;6.07;95.56;100383.11;108606;1255;59397;-76
2023/01/10 02:28:54;;;;;;;14.00;6.80;;;;;;;6.05;95.30;100392.80;107889;1255;59824;-76
2023/01/10 02:31:49;;;;;;;12.50;6.40;;;;;;;6.07;95.57;100395.90;107374;1255;73626;-77
2023/01/10 02:34:31;;;;;;;12.80;7.30;;;;;;;6.09;95.22;100399.98;107282;1255;70293;-77
2023/01/10 02:37:07;;;;;;;11.00;6.40;;;;;;;6.07;95.68;100401.02;107364;1258;72875;-77
2023/01/10 02:39:56;;;;;;;10.10;6.80;;;;;;;6.04;96.87;100403.38;107004;1255;60944;-78
2023/01/10 02:42:38;;;;;;;11.50;6.00;;;;;;;5.94;97.66;100410.89;107239;1255;60948;-75
2023/01/10 02:45:28;;;;;;;10.80;5.80;;;;;;;5.86;98.32;100410.42;107222;1257;72500;-74
2023/01/10 02:47:56;;;;;;;10.40;5.80;;;;;;;5.81;98.68;100411.98;107824;1256;71190;-75
2023/01/10 02:50:41;;;;;;;9.50;5.20;;;;;;;5.76;98.91;100411.08;107638;1255;72657;-76
2023/01/10 02:53:28;;;;;;;10.20;5.00;;;;;;;5.70;99.03;100414.29;107336;1255;60980;-77
2023/01/10 02:56:13;;;;;;;13.20;5.20;;;;;;;5.69;99.44;100410.88;107983;1256;59327;-76
2023/01/10 02:58:50;;;;;;;10.50;5.20;;;;;;;5.66;99.58;100417.44;106747;1255;72739;-77
2023/01/10 03:01:37;;;;;;;9.90;5.10;;;;;;;5.64;99.99;100423.27;106779;1257;70598;-76
2023/01/10 03:04:28;;;;;;;20.20;6.50;;;;;;;5.63;100.00;100429.05;106922;1255;73144;-76
2023/01/10 03:07:27;;;;;;;11.30;5.60;;;;;;;5.64;100.00;100436.83;106982;1257;59705;-75
2023/01/10 03:10:06;;;;;;;12.50;5.90;;;;;;;5.65;100.00;100436.21;106853;1256;60644;-78
2023/01/10 03:12:57;;;;;;;11.10;6.10;;;;;;;5.66;100.00;100441.13;106800;1255;74491;-76
2023/01/10 03:15:28;;;;;;;11.80;5.90;;;;;;;5.66;100.00;100442.38;106919;1256;70374;-76
2023/01/10 03:18:01;;;;;;;10.10;5.80;;;;;;;5.66;100.00;100448.02;107169;1255;72394;-76
2023/01/10 03:20:30;;;;;;;14.30;6.40;;;;;;;5.67;100.00;100448.14;107149;1255;60906;-76
2023/01/10 03:23:01;;;;;;;10.60;5.90;;;;;;;5.66;100.00;100456.25;106903;1255;60677;-76
2023/01/10 03:25:33;;;;;;;11.30;5.80;;;;;;;5.66;100.00;100462.19;106793;1259;72428;-75
2023/01/10 03:28:13;;;;;;;13.10;5.20;;;;;;;5.67;99.99;100459.63;106907;1255;71705;-76
2023/01/10 03:30:46;;;;;;;13.60;5.50;;;;;;;5.67;99.97;100474.73;106723;1255;71155;-76
2023/01/10 03:33:16;;;;;;;10.70;5.70;;;;;;;5.68;99.93;100480.10;107154;1254;61027;-75
2023/01/10 03:36:31;;;;;;;10.60;4.80;;;;;;;5.69;99.91;100488.20;106877;1255;60956;-75
2023/01/10 03:39:18;;;;;;;11.30;5.00;;;;;;;5.70;99.83;100483.77;107000;1255;72881;-76
2023/01/10 03:42:11;;;;;;;10.60;4.30;;;;;;;5.66;99.26;100486.59;106867;1259;68895;-75
2023/01/10 03:44:53;;;;;;;8.70;4.20;;;;;;;5.62;99.14;100491.92;107154;1256;71973;-75
2023/01/10 03:47:40;;;;;;;8.40;4.10;;;;;;;5.56;98.92;100497.76;106933;1258;60470;-77
2023/01/10 03:50:10;;;;;;;9.10;4.00;;;;;;;5.53;98.93;100497.75;107059;1255;60457;-76
2023/01/10 03:52:41;;;;;;;8.40;3.60;;;;;;;5.47;99.07;100502.11;106924;1255;73589;-76
2023/01/10 03:55:11;;;;;;;10.30;4.00;;;;;;;5.44;99.17;100507.28;106900;1256;70179;-77
2023/01/10 03:57:44;;;;;;;9.80;3.60;;;;;;;5.42;99.12;100515.41;106996;1254;73214;-76
2023/01/10 04:00:12;;;;;;;8.60;3.20;;;;;;;5.40;99.36;100525.27;106829;1255;60833;-76
2023/01/10 04:02:39;;;;;;;8.10;3.00;;;;;;;5.40;99.56;100527.91;107213;1256;60948;-75
2023/01/10 04:05:07;;;;;;;8.50;3.20;;;;;;;5.41;99.46;100523.02;107038;1255;75148;-78
2023/01/10 04:07:37;;;;;;;8.10;2.80;;;;;;;5.43;99.37;100531.24;107067;1255;70074;-76
2023/01/10 04:10:05;;;;;;;11.10;3.30;;;;;;;5.46;99.45;100540.93;106971;1255;72520;-77
2023/01/10 04:12:43;;;;;;;13.30;3.00;;;;;;;5.48;99.38;100544.10;106814;1255;60517;-77
2023/01/10 04:15:11;;;;;;;10.60;3.30;;;;;;;5.52;99.41;100541.98;107062;1254;61355;-76
2023/01/10 04:17:38;;;;;;;8.70;2.90;;;;;;;5.53;99.07;100545.74;106815;1256;71836;-78
2023/01/10 04:20:06;;;;;;;8.30;2.60;;;;;;;5.54;99.03;100544.34;106924;1255;70376;-76
2023/01/10 04:22:33;;;;;;;9.60;2.90;;;;;;;5.56;98.92;100552.27;106950;1255;71542;-77
2023/01/10 04:25:00;;;;;;;12.30;3.10;;;;;;;5.59;98.84;100553.97;106732;1255;61191;-77
2023/01/10 04:27:27;;;;;;;12.30;3.10;;;;;;;5.61;98.32;100558.86;106995;1256;60387;-75
2023/01/10 04:29:54;;;;;;;8.80;2.80;;;;;;;5.64;98.37;100571.89;107262;1255;73935;-76
2023/01/10 04:32:21;;;;;;;9.90;2.70;;;;;;;5.68;98.08;100578.35;106858;1257;70036;-76
2023/01/10 04:34:48;;;;;;;10.50;3.00;;;;;;;5.69;97.88;100581.52;106750;1255;70810;-76
2023/01/10 04:37:15;;;;;;;11.90;3.20;;;;;;;5.71;97.90;100584.58;107177;1256;60955;-75
2023/01/10 04:39:42;;;;;;;13.80;3.10;;;;;;;5.73;97.84;100591.05;107177;1256;60708;-78
2023/01/10 04:42:09;;;;;;;9.30;3.00;;;;;;;5.72;97.69;100600.58;106751;1255;73559;-77
2023/01/10 04:44:35;;;;;;;9.80;2.80;;;;;;;5.74;97.30;100600.77;107174;1255;71172;-75
2023/01/10 04:47:03;;;;;;;13.10;3.30;;;;;;;5.76;97.39;100602.50;107274;1254;71550;-76
2023/01/10 04:49:30;;;;;;;10.70;3.20;;;;;;;5.76;97.11;100605.88;107289;1256;60993;-77
2023/01/10 04:51:57;;;;;;;12.80;3.10;;;;;;;5.77;96.48;100607.88;107232;1256;60364;-77
2023/01/10 04:54:24;;;;;;;10.50;3.30;;;;;;;5.80;96.29;100610.23;106686;1255;72413;-77
2023/01/10 04:56:51;;;;;;;11.20;3.20;;;;;;;5.82;96.35;100609.85;106709;1256;70898;-76
2023/01/10 04:59:18;;;;;;;9.80;3.80;;;;;;;5.85;95.85;100617.12;107171;1255;71150;-77
2023/01/10 05:01:45;;;;;;;10.00;3.40;;;;;;;5.86;95.89;100618.23;106758;1255;61295;-76
2023/01/10 05:04:12;;;;;;;13.00;3.30;;;;;;;5.86;95.82;100628.23;106969;1255;61235;-77
2023/01/10 05:06:39;;;;;;;12.60;3.60;;;;;;;5.87;95.75;100632.14;106877;1255;73999;-77
2023/01/10 05:09:10;;;;;;;12.40;3.70;;;;;;;5.89;95.59;100635.66;107314;1255;71189;-75
2023/01/10 05:11:39;;;;;;;10.90;3.20;;;;;;;5.88;95.43;100636.98;107014;1255;71500;-76
2023/01/10 05:14:07;;;;;;;14.20;3.50;;;;;;;5.86;95.21;100635.45;106985;1258;60441;-77
2023/01/10 05:16:35;;;;;;;14.00;3.60;;;;;;;5.84;95.13;100640.17;106841;1255;60997;-76
2023/01/10 05:19:02;;;;;;;11.90;3.30;;;;;;;5.79;95.13;100640.64;106852;1255;74713;-76
2023/01/10 05:21:29;;;;;;;10.10;3.40;;;;;;;5.72;95.14;100646.58;106703;1256;70430;-77
2023/01/10 05:23:56;;;;;;;13.80;3.70;;;;;;;5.66;95.38;100646.08;107066;1255;71398;-76
2023/01/10 05:26:23;;;;;;;10.10;3.50;;;;;;;5.59;95.26;100652.84;106782;1254;62166;-77
2023/01/10 05:28:50;;;;;;;12.20;3.30;;;;;;;5.50;95.43;100656.52;106708;1260;60429;-77
2023/01/10 05:31:18;;;;;;;17.40;4.00;;;;;;;5.43;95.74;100660.55;107125;1255;73486;-76
2023/01/10 05:33:47;;;;;;;12.40;3.50;;;;;;;5.36;95.93;100669.79;106761;1256;69951;-76
2023/01/10 05:36:18;;;;;;;10.80;3.00;;;;;;;5.31;96.11;100678.15;106962;1256;70894;-76
2023/01/10 05:38:45;;;;;;;11.30;3.50;;;;;;;5.25;96.23;100685.48;106777;1257;60548;-76
2023/01/10 05:41:13;;;;;;;12.70;3.60;;;;;;;5.21;96.26;100688.10;107129;1255;60572;-75
2023/01/10 05:43:42;;;;;;;12.70;3.70;;;;;;;5.18;96.51;100688.05;106944;1257;72732;-76
2023/01/10 05:46:10;;;;;;;11.60;4.00;;;;;;;5.15;96.54;100691.02;106915;1255;69940;-75
2023/01/10 05:48:37;;;;;;;15.40;3.70;;;;;;;5.11;96.56;100693.06;106941;1258;73962;-76
2023/01/10 05:51:05;;;;;;;14.40;3.50;;;;;;;5.08;96.62;100697.52;107175;1254;60928;-75
2023/01/10 05:53:39;;;;;;;17.20;4.30;;;;;;;5.05;96.53;100708.33;107137;1255;61079;-77
2023/01/10 05:56:08;;;;;;;15.10;4.20;;;;;;;5.02;96.71;100715.98;106878;1255;73851;-76
2023/01/10 05:58:35;;;;;;;12.10;3.80;;;;;;;4.98;96.62;100720.22;107284;1254;70990;-74
2023/01/10 06:01:02;;;;;;;15.30;4.90;;;;;;;4.95;96.72;100727.33;107795;1255;73090;-75
2023/01/10 06:03:29;;;;;;;14.10;4.00;;;;;;;4.93;96.71;100729.95;106387;1255;60549;-79
2023/01/10 06:05:56;;;;;;;12.30;4.30;;;;;;;4.91;96.48;100735.15;106781;1255;60433;-76
2023/01/10 06:08:24;;;;;;;14.20;4.80;;;;;;;4.90;96.43;100740.19;106437;1255;74110;-77
2023/01/10 06:10:50;;;;;;;16.00;4.30;;;;;;;4.91;96.32;100747.30;106358;1258;69759;-78
2023/01/10 06:13:17;;;;;;;13.70;4.50;;;;;;;4.92;96.23;100748.47;106360;1257;74794;-75
2023/01/10 06:15:45;;;;;;;15.30;4.30;;;;;;;4.93;96.19;100759.38;106670;1255;60405;-76
2023/01/10 06:18:12;;;;;;;14.20;5.20;;;;;;;4.95;96.25;100766.89;106791;1254;60448;-77
2023/01/10 06:20:41;;;;;;;15.30;5.10;;;;;;;4.99;96.11;100768.14;106476;1257;71894;-76
2023/01/10 06:23:08;;;;;;;13.90;5.20;;;;;;;5.03;96.10;100769.16;106647;1255;71308;-78
2023/01/10 06:25:41;;;;;;;12.90;4.80;;;;;;;5.07;95.95;100771.92;106500;1255;71171;-76
2023/01/10 06:28:10;;;;;;;14.30;5.10;;;;;;;5.10;95.74;100775.05;106437;1254;60435;-75
2023/01/10 06:30:37;;;;;;;15.80;4.80;;;;;;;5.10;95.36;100781.33;106596;1256;60658;-77
2023/01/10 06:33:06;;;;;;;17.00;5.10;;;;;;;5.10;95.26;100788.67;106692;1257;73685;-76
2023/01/10 06:35:34;;;;;;;15.10;5.20;;;;;;;5.11;95.26;100797.91;106797;1256;69241;-75
2023/01/10 06:38:01;;;;;;;14.30;5.10;;;;;;;5.10;95.05;100810.24;106660;1260;73112;-76
2023/01/10 06:40:30;;;;;;;13.60;5.20;;;;;;;5.11;94.79;100811.39;106729;1255;60474;-75
2023/01/10 06:43:00;;;;;;;15.10;5.10;;;;;;;5.11;94.59;100814.38;106750;1255;60541;-76
2023/01/10 06:45:27;;;;;;;16.40;5.00;;;;;;;5.10;94.48;100817.77;107298;1255;72957;-75
2023/01/10 06:47:54;;;;;;;14.00;5.00;;;;;;;5.09;94.19;100822.26;106754;1255;70935;-76
2023/01/10 06:50:21;;;;;;;12.20;5.00;;;;;;;5.09;94.09;100827.39;106871;1255;72408;-78
2023/01/10 06:52:56;;;;;;;15.10;4.90;;;;;;;5.07;93.99;100829.14;107313;1256;60423;-74
2023/01/10 06:55:31;;;;;;;13.60;5.20;;;;;;;5.06;93.99;100834.86;106818;1256;60362;-77
2023/01/10 06:58:00;;;;;;;14.00;4.60;;;;;;;5.04;94.07;100841.34;106095;1255;72618;-77
2023/01/10 07:00:28;;;;;;;13.20;5.20;;;;;;;5.02;93.94;100840.77;106165;1259;71306;-75
2023/01/10 07:03:00;;;;;;;16.80;5.00;;;;;;;5.02;94.04;100837.95;106525;1255;74168;-76
2023/01/10 07:05:32;;;;;;;14.50;5.10;;;;;;;5.01;94.06;100841.02;107626;1254;60920;-78
2023/01/10 07:08:02;;;;;;;15.80;4.50;;;;;;;5.01;94.06;100840.35;106973;1256;59269;-76
2023/01/10 07:10:29;;;;;;;12.10;4.80;;;;;;;5.02;94.21;100839.16;107193;1255;72559;-77
2023/01/10 07:12:58;;;;;;;13.00;4.90;;;;;;;5.04;94.24;100840.11;107064;1257;71341;-76
2023/01/10 07:15:26;;;;;;;15.20;5.30;;;;;;;5.06;94.24;100844.46;106525;1256;352068;-78
2023/01/10 07:17:57;;;;;;;14.20;4.80;;;;;;;5.09;94.30;100853.63;107127;1255;60424;-78
2023/01/10 07:20:24;;;;;;;15.40;5.10;;;;;;;5.13;94.22;100855.26;106684;1259;60276;-77
2023/01/10 07:22:58;;;;;;;13.30;4.80;;;;;;;5.16;94.12;100856.88;106792;1255;73600;-77
2023/01/10 07:25:28;;;;;;;15.50;4.90;;;;;;;5.20;94.18;100857.63;106458;1255;70373;-79
2023/01/10 07:28:03;;;;;;;15.30;4.60;;;;;;;5.22;94.14;100859.73;106720;1261;70622;-77
2023/01/10 07:30:30;;;;;;;11.20;5.00;;;;;;;5.24;93.93;100860.77;106915;1255;61204;-77
2023/01/10 07:32:57;;;;;;;16.40;5.40;;;;;;;5.26;94.03;100868.28;106519;1258;61666;-76
2023/01/10 07:35:27;;;;;;;13.90;5.30;;;;;;;5.29;94.06;100870.23;106751;1259;72373;-77
2023/01/10 07:37:59;;;;;;;14.20;5.10;;;;;;;5.32;93.85;100873.35;106664;1254;70877;-77
2023/01/10 07:40:27;;;;;;;14.20;5.10;;;;;;;5.34;93.80;100877.73;106851;1254;71283;-76
2023/01/10 07:42:58;;;;;;;13.50;4.90;;;;;;;5.36;93.74;100876.05;106420;1255;60415;-77
2023/01/10 07:45:35;;;;;;;14.90;5.60;;;;;;;5.36;93.80;100880.20;106560;1257;61678;-77
2023/01/10 07:48:04;;;;;;;15.30;4.90;;;;;;;5.37;93.50;100885.05;106636;1256;72354;-77
2023/01/10 07:50:34;;;;;;;13.00;4.60;;;;;;;5.40;93.41;100890.95;106562;1258;71149;-76
2023/01/10 07:53:04;;;;;;;17.60;5.80;;;;;;;5.43;93.36;100891.36;106502;1256;73827;-78
2023/01/10 07:55:33;;;;;;;12.00;4.80;;;;;;;5.44;93.32;100891.77;106576;1256;60518;-77
2023/01/10 07:58:00;;;;;;;11.40;4.40;;;;;;;5.45;93.24;100891.81;106829;1257;60538;-76
2023/01/10 08:00:27;;;;;;;13.50;4.90;;;;;;;5.47;93.23;100893.91;106603;1255;71819;-76
2023/01/10 08:02:55;;;;;;;16.20;5.30;;;;;;;5.51;93.22;100900.65;106803;1255;71060;-79
2023/01/10 08:05:24;;;;;;;14.50;4.90;;;;;;;5.54;93.29;100896.14;106692;1256;70977;-80
2023/01/10 08:07:52;;;;;;;18.50;5.40;;;;;;;5.60;93.28;100896.67;106836;1256;60890;-78
2023/01/10 08:10:24;;;;;;;11.20;4.30;;;;;;;5.65;93.50;100899.76;106507;1255;60475;-79
2023/01/10 08:12:51;;;;;;;17.60;5.80;;;;;;;5.65;93.57;100904.40;106662;1260;74179;-78
2023/01/10 08:15:18;;;;;;;13.80;5.50;;;;;;;5.68;93.54;100901.36;106683;1255;71503;-77
2023/01/10 08:17:45;;;;;;;14.00;5.30;;;;;;;5.70;93.28;100906.09;106679;1255;72482;-80
2023/01/10 08:20:12;;;;;;;13.90;5.90;;;;;;;5.74;93.20;100908.56;107125;1257;60354;-78
2023/01/10 08:22:39;;;;;;;15.00;5.70;;;;;;;5.79;93.10;100909.92;106739;1255;60481;-81
2023/01/10 08:25:06;;;;;;;16.00;6.20;;;;;;;5.82;93.05;100908.41;106997;1255;73993;-81
2023/01/10 08:27:33;;;;;;;15.40;5.70;;;;;;;5.85;93.17;100913.16;106888;1257;69682;-82
2023/01/10 08:30:01;;;;;;;15.20;5.80;;;;;;;5.87;93.19;100920.54;107206;1255;72661;-82
2023/01/10 08:32:28;;;;;;;14.90;6.20;;;;;;;5.89;93.04;100926.67;107229;1255;60438;-82
2023/01/10 08:34:55;;;;;;;15.20;6.10;;;;;;;5.96;92.83;100926.80;107300;1255;60438;-81
2023/01/10 08:37:31;;;;;;;15.30;5.80;;;;;;;6.02;92.85;100929.20;107489;1259;73953;-81
2023/01/10 08:40:01;;;;;;;15.10;5.80;;;;;;;6.07;92.73;100931.23;107969;1255;69694;-81
2023/01/10 08:42:30;;;;;;;15.20;6.30;;;;;;;6.09;92.30;100937.49;107613;1257;73696;-80
2023/01/10 08:44:59;;;;;;;16.90;7.10;;;;;;;6.14;92.24;100945.38;107256;1256;60844;-79
2023/01/10 08:47:27;;;;;;;13.10;6.20;;;;;;;6.19;91.83;100951.59;107221;1255;60468;-83
2023/01/10 08:49:55;;;;;;;12.90;6.40;;;;;;;6.20;91.64;100951.85;107164;1255;75395;-82
2023/01/10 08:52:22;;;;;;;15.30;5.30;;;;;;;6.25;91.50;100954.92;107270;1261;71107;-81
2023/01/10 08:54:49;;;;;;;16.00;6.10;;;;;;;6.28;91.64;100953.53;107367;1255;70562;-80
2023/01/10 08:57:17;;;;;;;14.30;6.40;;;;;;;6.32;91.32;100946.48;106831;1255;60916;-81
2023/01/10 08:59:44;;;;;;;14.90;6.30;;;;;;;6.37;90.64;100933.91;107506;1255;60743;-81
2023/01/10 09:02:14;;;;;;;16.20;6.90;;;;;;;6.43;90.66;100928.45;107022;1255;73363;-81
2023/01/10 09:04:42;;;;;;;15.20;5.90;;;;;;;6.47;90.25;100936.84;107394;1255;70834;-82
2023/01/10 09:07:11;;;;;;;15.40;6.10;;;;;;;6.52;90.07;100938.90;107173;1256;73657;-81
2023/01/10 09:09:41;;;;;;;15.70;6.70;;;;;;;6.54;89.69;100934.29;107268;1256;59163;-82
2023/01/10 09:14:57;;;;;;;18.30;6.70;;;;;;;6.56;89.02;100947.14;107017;1258;74763;-81
2023/01/10 09:17:24;;;;;;;12.80;6.10;;;;;;;6.59;89.11;100951.79;107030;1256;71096;-82
2023/01/10 09:19:52;;;;;;;15.60;6.80;;;;;;;6.64;89.19;100953.80;107003;1255;71491;-82
2023/01/10 09:22:28;;;;;;;15.20;6.80;;;;;;;6.65;88.82;100952.30;107149;1260;60425;-82
2023/01/10 09:25:11;;;;;;;15.90;7.20;;;;;;;6.69;88.61;100951.02;107343;1255;60501;-83
2023/01/10 09:27:40;;;;;;;11.40;6.40;;;;;;;6.73;88.89;100959.80;107233;1255;72918;-82
2023/01/10 09:30:11;;;;;;;15.40;7.20;;;;;;;6.73;88.46;100965.34;107140;1255;70338;-82
2023/01/10 09:36:50;;;;;;;17.50;6.90;;;;;;;6.80;88.23;100984.29;107258;1256;60280;-82
2023/01/10 09:39:24;;;;;;;17.50;7.50;;;;;;;6.78;88.06;100990.23;107046;1257;60340;-84
2023/01/10 09:42:01;;;;;;;15.70;7.30;;;;;;;6.81;87.92;100992.23;106570;1260;74361;-83
2023/01/10 09:44:36;;;;;;;17.50;7.50;;;;;;;6.84;88.18;100993.02;106604;1256;69908;-83
2023/01/10 09:47:37;;;;;;;16.40;8.20;;;;;;;6.88;87.90;100999.86;106519;1262;72282;-82
2023/01/10 09:50:17;;;;;;;17.70;7.70;;;;;;;6.93;87.37;101001.87;106837;1255;60494;-81
2023/01/10 09:52:51;;;;;;;16.50;7.70;;;;;;;6.97;87.00;101004.48;106939;1255;61051;-80
2023/01/10 09:55:24;;;;;;;19.00;7.40;;;;;;;7.00;87.03;101004.70;106786;1256;73960;-80
2023/01/10 09:58:01;;;;;;;18.40;7.70;;;;;;;7.01;86.54;101011.02;106585;1255;69265;-79
2023/01/10 10:00:47;;;;;;;17.40;7.40;;;;;;;7.03;86.52;101013.95;106578;1255;72821;-84
2023/01/10 10:03:53;;;;;;;20.10;7.50;;;;;;;7.03;86.81;101015.13;106797;1258;61142;-82
2023/01/10 10:06:23;;;;;;;20.60;7.10;;;;;;;7.02;86.52;101017.27;107130;1255;61707;-79
2023/01/10 10:08:55;;;;;;;15.00;6.60;;;;;;;7.00;86.38;101012.34;106684;1256;72730;-79
2023/01/10 10:11:25;;;;;;;14.50;6.50;;;;;;;6.99;86.40;101018.34;106464;1255;71232;-79
2023/01/10 10:14:21;;;;;;;20.30;8.00;;;;;;;6.95;85.82;101014.88;106548;1256;72728;-80
2023/01/10 10:17:40;;;;;;;16.00;7.60;;;;;;;7.01;86.48;101011.31;106572;1259;60462;-79
2023/01/10 10:20:32;;;;;;;15.70;7.00;;;;;;;7.06;86.15;101012.41;106863;1257;59795;-80
2023/01/10 10:23:04;;;;;;;18.10;6.90;;;;;;;7.12;86.07;101012.73;107002;1255;74899;-81
2023/01/10 10:25:47;;;;;;;16.20;6.90;;;;;;;7.19;85.28;101006.80;107136;1255;69097;-80
2023/01/10 10:28:22;;;;;;;14.90;7.20;;;;;;;7.25;85.23;101011.34;106833;1260;71275;-80
2023/01/10 10:31:20;;;;;;;16.80;7.00;;;;;;;7.30;85.00;101001.67;107096;1259;60324;-82
2023/01/10 10:34:07;;;;;;;18.60;7.70;;;;;;;7.34;84.73;101004.89;107356;1262;60486;-83
2023/01/10 10:37:00;;;;;;;16.40;7.50;;;;;;;7.36;85.14;101006.23;106902;1261;75054;-81
2023/01/10 10:39:47;;;;;;;18.10;7.50;;;;;;;7.42;84.99;101001.85;106909;1255;69699;-80
2023/01/10 10:42:19;;;;;;;14.70;7.00;;;;;;;7.48;84.25;101008.09;106667;1255;71148;-81
2023/01/10 10:45:38;;;;;;;14.30;7.50;;;;;;;7.55;83.68;101016.78;106517;1262;60865;-82
2023/01/10 10:48:20;;;;;;;17.60;8.10;;;;;;;7.59;83.04;101012.73;106728;1257;60372;-79
2023/01/10 10:51:26;;;;;;;17.80;8.00;;;;;;;7.68;83.21;101017.48;106520;1256;73600;-79
2023/01/10 10:53:55;;;;;;;18.70;8.00;;;;;;;7.73;82.84;101017.31;106508;1256;72006;-80
2023/01/10 10:56:25;;;;;;;16.10;8.10;;;;;;;7.80;82.58;101024.55;106934;1256;72825;-80
2023/01/10 10:58:57;;;;;;;21.00;7.80;;;;;;;7.82;81.76;101027.87;106505;1256;60762;-80
2023/01/10 11:01:32;;;;;;;16.20;6.80;;;;;;;7.79;81.16;101022.73;106548;1257;60891;-78
2023/01/10 11:04:28;;;;;;;15.20;7.50;;;;;;;7.74;80.67;101032.53;106343;1263;73963;-79
2023/01/10 11:06:55;;;;;;;12.90;7.10;;;;;;;7.69;81.06;101032.46;106082;1258;71280;-76
2023/01/10 11:12:01;;;;;;;16.40;7.20;;;;;;;7.59;81.35;101031.84;105963;1255;60537;-76
2023/01/10 11:14:47;;;;;;;13.80;6.20;;;;;;;7.56;81.29;101036.59;106004;1260;60503;-76
2023/01/10 11:17:20;;;;;;;13.70;6.10;;;;;;;7.50;81.15;101037.46;107100;1256;73902;-77
2023/01/10 11:19:53;;;;;;;15.50;7.00;;;;;;;7.51;81.16;101042.86;106424;1255;70477;-77
2023/01/10 11:22:20;;;;;;;13.80;6.00;;;;;;;7.49;81.35;101041.02;106685;1255;72676;-77
2023/01/10 11:24:57;;;;;;;20.70;6.70;;;;;;;7.50;81.41;101039.75;106175;1255;60561;-77
2023/01/10 11:27:27;;;;;;;16.00;6.40;;;;;;;7.48;81.15;101041.06;106217;1255;60509;-79
2023/01/10 11:30:02;;;;;;;12.70;5.50;;;;;;;7.43;81.34;101042.42;106819;1257;72566;-77
2023/01/10 11:32:39;;;;;;;11.90;6.10;;;;;;;7.37;81.54;101046.66;106279;1260;71120;-77
2023/01/10 11:35:22;;;;;;;13.50;6.80;;;;;;;7.33;81.95;101043.67;106689;1257;72439;-77
2023/01/10 11:38:15;;;;;;;17.50;6.40;;;;;;;7.35;81.98;101041.69;106262;1260;60877;-77
2023/01/10 11:40:55;;;;;;;15.60;6.90;;;;;;;7.36;82.12;101044.44;106465;1260;60371;-78
2023/01/10 11:43:39;;;;;;;16.70;6.60;;;;;;;7.39;82.31;101036.23;106009;1256;74714;-76
2023/01/10 11:46:19;;;;;;;15.60;7.00;;;;;;;7.40;81.64;101034.22;106560;1255;70687;-79
2023/01/10 11:49:02;;;;;;;14.00;6.20;;;;;;;7.41;82.11;101030.44;106630;1261;71527;-81
2023/01/10 11:51:37;;;;;;;12.00;6.30;;;;;;;7.43;81.75;101026.01;107227;1256;60451;-82
2023/01/10 11:54:08;;;;;;;14.30;6.30;;;;;;;7.42;81.68;101020.88;106758;1261;60445;-79
2023/01/10 11:56:40;;;;;;;17.10;7.00;;;;;;;7.46;82.12;101020.80;106846;1256;74000;-82
2023/01/10 11:59:17;;;;;;;15.00;6.20;;;;;;;7.47;81.91;101026.10;107066;1257;69748;-80